createdAt,value
2023-01-09T00:01:03.360Z,100.00
2023-01-09T00:03:30.554Z,100.00
2023-01-09T00:05:57.638Z,100.00
2023-01-09T00:08:24.767Z,100.00
2023-01-09T00:10:51.843Z,100.00
2023-01-09T00:13:18.995Z,100.00
2023-01-09T00:15:46.130Z,100.00
2023-01-09T00:18:13.235Z,100.00
2023-01-09T00:20:40.684Z,100.00
2023-01-09T00:23:08.008Z,100.00
2023-01-09T00:25:35.683Z,100.00
2023-01-09T00:28:02.900Z,100.00
2023-01-09T00:30:30.139Z,100.00
2023-01-09T00:32:57.383Z,100.00
2023-01-09T00:35:26.188Z,100.00
2023-01-09T00:37:53.266Z,100.00
2023-01-09T00:40:20.988Z,100.00
2023-01-09T00:42:53.736Z,100.00
2023-01-09T00:45:28.865Z,100.00
2023-01-09T00:48:03.828Z,100.00
2023-01-09T00:50:32.213Z,100.00
2023-01-09T00:53:06.417Z,100.00
2023-01-09T00:55:35.620Z,100.00
2023-01-09T00:58:03.094Z,100.00
2023-01-09T01:00:30.233Z,100.00
2023-01-09T01:02:57.364Z,100.00
2023-01-09T01:05:43.640Z,100.00
2023-01-09T01:08:12.637Z,100.00
2023-01-09T01:10:39.957Z,100.00
2023-01-09T01:13:07.277Z,100.00
2023-01-09T01:15:34.651Z,100.00
2023-01-09T01:18:01.787Z,100.00
2023-01-09T01:20:28.902Z,100.00
2023-01-09T01:22:56.005Z,100.00
2023-01-09T01:25:23.524Z,100.00
2023-01-09T01:27:50.689Z,100.00
2023-01-09T01:30:18.791Z,100.00
2023-01-09T01:32:46.085Z,100.00
2023-01-09T01:35:13.520Z,100.00
2023-01-09T01:37:40.795Z,100.00
2023-01-09T01:40:09.712Z,100.00
2023-01-09T01:42:36.860Z,100.00
2023-01-09T01:45:14.286Z,100.00
2023-01-09T01:47:49.130Z,100.00
2023-01-09T01:50:27.740Z,100.00
2023-01-09T01:53:16.993Z,100.00
2023-01-09T01:56:07.003Z,100.00
2023-01-09T01:58:43.124Z,100.00
2023-01-09T02:01:10.550Z,100.00
2023-01-09T02:03:39.666Z,100.00
2023-01-09T02:06:07.632Z,100.00
2023-01-09T02:08:35.224Z,100.00
2023-01-09T02:11:04.270Z,100.00
2023-01-09T02:13:34.344Z,100.00
2023-01-09T02:16:16.584Z,100.00
2023-01-09T02:18:52.047Z,100.00
2023-01-09T02:21:31.839Z,100.00
2023-01-09T02:24:09.101Z,100.00
2023-01-09T02:26:54.712Z,100.00
2023-01-09T02:29:39.271Z,100.00
2023-01-09T02:32:45.691Z,100.00
2023-01-09T02:35:34.334Z,100.00
2023-01-09T02:38:19.980Z,100.00
2023-01-09T02:40:53.452Z,100.00
2023-01-09T02:43:21.136Z,100.00
2023-01-09T02:46:19.206Z,100.00
2023-01-09T02:48:49.396Z,100.00
2023-01-09T02:51:21.753Z,100.00
2023-01-09T02:54:07.091Z,100.00
2023-01-09T02:57:14.560Z,100.00
2023-01-09T03:00:21.960Z,100.00
2023-01-09T03:03:15.112Z,100.00
2023-01-09T03:05:59.048Z,100.00
2023-01-09T03:08:37.710Z,100.00
2023-01-09T03:11:07.715Z,100.00
2023-01-09T03:14:13.721Z,100.00
2023-01-09T03:16:46.669Z,100.00
2023-01-09T03:19:20.031Z,100.00
2023-01-09T03:21:48.047Z,100.00
2023-01-09T03:24:15.450Z,100.00
2023-01-09T03:26:42.636Z,100.00
2023-01-09T03:29:10.638Z,100.00
2023-01-09T03:31:38.012Z,100.00
2023-01-09T03:34:05.302Z,100.00
2023-01-09T03:36:32.557Z,100.00
2023-01-09T03:38:59.703Z,100.00
2023-01-09T03:41:26.881Z,100.00
2023-01-09T03:43:53.997Z,100.00
2023-01-09T03:46:21.111Z,100.00
2023-01-09T03:48:48.213Z,100.00
2023-01-09T03:51:15.295Z,100.00
2023-01-09T03:53:42.385Z,100.00
2023-01-09T03:56:09.539Z,100.00
2023-01-09T03:58:36.718Z,100.00
2023-01-09T04:01:09.269Z,100.00
2023-01-09T04:03:36.587Z,100.00
2023-01-09T04:06:04.034Z,100.00
2023-01-09T04:08:31.176Z,100.00
2023-01-09T04:10:58.268Z,100.00
2023-01-09T04:13:25.396Z,100.00
2023-01-09T04:15:52.557Z,100.00
2023-01-09T04:18:19.739Z,100.00
2023-01-09T04:20:47.852Z,100.00
2023-01-09T04:23:15.573Z,100.00
2023-01-09T04:25:42.691Z,100.00
2023-01-09T04:28:09.866Z,100.00
2023-01-09T04:30:37.044Z,100.00
2023-01-09T04:33:04.183Z,100.00
2023-01-09T04:35:31.290Z,100.00
2023-01-09T04:37:58.647Z,100.00
2023-01-09T04:40:25.735Z,100.00
2023-01-09T04:42:52.834Z,100.00
2023-01-09T04:45:20.023Z,100.00
2023-01-09T04:47:47.819Z,100.00
2023-01-09T04:50:15.131Z,100.00
2023-01-09T04:52:42.229Z,100.00
2023-01-09T04:55:09.602Z,100.00
2023-01-09T04:57:38.316Z,100.00
2023-01-09T05:00:09.797Z,100.00
2023-01-09T05:02:37.763Z,100.00
2023-01-09T05:05:06.333Z,100.00
2023-01-09T05:07:34.386Z,100.00
2023-01-09T05:10:02.037Z,100.00
2023-01-09T05:12:29.191Z,100.00
2023-01-09T05:14:57.825Z,100.00
2023-01-09T05:17:24.961Z,100.00
2023-01-09T05:19:52.126Z,100.00
2023-01-09T05:22:19.388Z,100.00
2023-01-09T05:24:46.892Z,100.00
2023-01-09T05:27:13.987Z,100.00
2023-01-09T05:29:41.044Z,100.00
2023-01-09T05:32:08.123Z,100.00
2023-01-09T05:34:35.301Z,100.00
2023-01-09T05:37:02.408Z,100.00
2023-01-09T05:39:29.477Z,100.00
2023-01-09T05:41:56.562Z,100.00
2023-01-09T05:44:23.861Z,100.00
2023-01-09T05:46:50.935Z,100.00
2023-01-09T05:49:18.000Z,100.00
2023-01-09T05:51:45.115Z,100.00
2023-01-09T05:54:12.200Z,100.00
2023-01-09T05:56:39.292Z,100.00
2023-01-09T05:59:06.434Z,100.00
2023-01-09T06:01:33.544Z,100.00
2023-01-09T06:04:00.743Z,100.00
2023-01-09T06:06:27.815Z,100.00
2023-01-09T06:08:55.016Z,100.00
2023-01-09T06:11:22.079Z,100.00
2023-01-09T06:13:49.156Z,100.00
2023-01-09T06:16:16.342Z,100.00
2023-01-09T06:18:43.441Z,100.00
2023-01-09T06:21:10.523Z,100.00
2023-01-09T06:23:37.628Z,100.00
2023-01-09T06:26:10.939Z,100.00
2023-01-09T06:28:38.091Z,100.00
2023-01-09T06:31:05.606Z,100.00
2023-01-09T06:33:32.699Z,100.00
2023-01-09T06:35:59.810Z,100.00
2023-01-09T06:38:26.969Z,100.00
2023-01-09T06:40:54.043Z,100.00
2023-01-09T06:43:21.185Z,100.00
2023-01-09T06:45:48.330Z,100.00
2023-01-09T06:48:15.543Z,100.00
2023-01-09T06:50:42.650Z,100.00
2023-01-09T06:53:10.766Z,100.00
2023-01-09T06:55:37.855Z,100.00
2023-01-09T06:58:04.964Z,100.00
2023-01-09T07:00:32.079Z,100.00
2023-01-09T07:02:59.239Z,100.00
2023-01-09T07:05:26.417Z,100.00
2023-01-09T07:07:53.542Z,100.00
2023-01-09T07:10:20.686Z,100.00
2023-01-09T07:12:47.840Z,100.00
2023-01-09T07:15:14.991Z,100.00
2023-01-09T07:17:42.113Z,100.00
2023-01-09T07:20:10.030Z,100.00
2023-01-09T07:22:37.181Z,100.00
2023-01-09T07:25:04.760Z,100.00
2023-01-09T07:27:31.889Z,100.00
2023-01-09T07:29:59.000Z,100.00
2023-01-09T07:32:26.095Z,100.00
2023-01-09T07:34:53.208Z,100.00
2023-01-09T07:37:20.326Z,100.00
2023-01-09T07:39:47.509Z,100.00
2023-01-09T07:42:15.015Z,100.00
2023-01-09T07:44:42.273Z,100.00
2023-01-09T07:47:09.356Z,100.00
2023-01-09T07:49:36.513Z,100.00
2023-01-09T07:52:04.910Z,100.00
2023-01-09T07:54:32.094Z,100.00
2023-01-09T07:56:59.219Z,100.00
2023-01-09T07:59:27.829Z,100.00
2023-01-09T08:01:55.535Z,100.00
2023-01-09T08:04:23.133Z,100.00
2023-01-09T08:06:55.622Z,100.00
2023-01-09T08:09:23.055Z,100.00
2023-01-09T08:11:50.788Z,100.00
2023-01-09T08:14:17.847Z,100.00
2023-01-09T08:16:44.974Z,100.00
2023-01-09T08:19:12.216Z,100.00
2023-01-09T08:21:39.997Z,100.00
2023-01-09T08:24:07.244Z,100.00
2023-01-09T08:26:34.356Z,100.00
2023-01-09T08:29:01.438Z,100.00
2023-01-09T08:31:28.594Z,100.00
2023-01-09T08:33:55.735Z,100.00
2023-01-09T08:36:22.871Z,99.24
2023-01-09T08:38:49.964Z,100.00
2023-01-09T08:41:35.384Z,99.73
2023-01-09T08:44:20.820Z,99.06
2023-01-09T08:47:05.866Z,98.41
2023-01-09T08:49:38.597Z,99.17
2023-01-09T08:52:07.524Z,98.70
2023-01-09T08:54:38.788Z,99.71
2023-01-09T08:57:06.853Z,99.43
2023-01-09T08:59:34.229Z,98.64
2023-01-09T09:02:01.424Z,98.15
2023-01-09T09:04:28.573Z,97.60
2023-01-09T09:06:55.706Z,98.33
2023-01-09T09:09:22.813Z,99.67
2023-01-09T09:11:49.866Z,97.85
2023-01-09T09:14:35.272Z,97.41
2023-01-09T09:17:02.487Z,97.08
2023-01-09T09:19:29.586Z,96.22
2023-01-09T09:21:56.720Z,96.72
2023-01-09T09:24:23.805Z,95.17
2023-01-09T09:26:50.926Z,94.38
2023-01-09T09:29:18.035Z,93.27
2023-01-09T09:31:45.117Z,94.17
2023-01-09T09:34:13.219Z,94.53
2023-01-09T09:36:40.396Z,95.04
2023-01-09T09:39:08.564Z,95.14
2023-01-09T09:42:06.242Z,93.56
2023-01-09T09:44:54.514Z,93.74
2023-01-09T09:47:30.989Z,93.63
2023-01-09T09:50:24.712Z,94.07
2023-01-09T09:53:16.993Z,93.46
2023-01-09T09:55:46.663Z,93.68
2023-01-09T09:58:36.953Z,95.31
2023-01-09T10:01:05.627Z,94.47
2023-01-09T10:03:40.229Z,92.06
2023-01-09T10:06:18.100Z,90.71
2023-01-09T10:08:53.448Z,92.44
2023-01-09T10:11:26.422Z,93.41
2023-01-09T10:14:08.228Z,95.06
2023-01-09T10:16:53.868Z,95.52
2023-01-09T10:19:35.745Z,96.18
2023-01-09T10:22:16.075Z,96.04
2023-01-09T10:24:57.048Z,97.53
2023-01-09T10:28:00.984Z,97.91
2023-01-09T10:30:36.334Z,99.18
2023-01-09T10:33:16.734Z,97.66
2023-01-09T10:36:20.408Z,97.96
2023-01-09T10:38:50.755Z,97.36
2023-01-09T10:41:42.535Z,95.62
2023-01-09T10:44:12.338Z,94.05
2023-01-09T10:46:47.087Z,94.16
2023-01-09T10:49:17.760Z,90.76
2023-01-09T10:51:48.872Z,89.74
2023-01-09T10:54:19.004Z,89.63
2023-01-09T10:57:04.975Z,91.94
2023-01-09T10:59:32.201Z,91.41
2023-01-09T11:01:59.478Z,92.20
2023-01-09T11:04:44.568Z,95.31
2023-01-09T11:07:19.524Z,96.06
2023-01-09T11:09:56.913Z,97.49
2023-01-09T11:12:32.224Z,94.96
2023-01-09T11:15:29.150Z,95.29
2023-01-09T11:18:18.086Z,94.64
2023-01-09T11:20:45.428Z,93.96
2023-01-09T11:23:32.303Z,92.95
2023-01-09T11:26:02.167Z,88.03
2023-01-09T11:28:29.722Z,87.57
2023-01-09T11:31:02.311Z,91.08
2023-01-09T11:33:34.255Z,90.60
2023-01-09T11:36:07.840Z,88.31
2023-01-09T11:39:19.199Z,89.89
2023-01-09T11:41:48.285Z,86.80
2023-01-09T11:44:16.688Z,88.26
2023-01-09T11:46:44.663Z,88.55
2023-01-09T11:49:14.539Z,90.84
2023-01-09T11:51:42.824Z,90.44
2023-01-09T11:54:27.589Z,91.68
2023-01-09T11:56:55.751Z,93.12
2023-01-09T11:59:27.367Z,94.30
2023-01-09T12:02:23.503Z,93.97
2023-01-09T12:05:01.707Z,91.90
2023-01-09T12:07:47.529Z,93.67
2023-01-09T12:10:39.263Z,93.80
2023-01-09T12:13:25.137Z,93.70
2023-01-09T12:16:05.119Z,93.63
2023-01-09T12:18:56.344Z,95.09
2023-01-09T12:21:34.113Z,95.84
2023-01-09T12:24:01.125Z,96.15
2023-01-09T12:26:39.872Z,94.36
2023-01-09T12:29:37.891Z,93.15
2023-01-09T12:32:38.831Z,93.69
2023-01-09T12:35:30.616Z,91.96
2023-01-09T12:38:23.811Z,91.96
2023-01-09T12:41:00.962Z,89.06
2023-01-09T12:43:53.086Z,89.65
2023-01-09T12:46:28.794Z,89.27
2023-01-09T12:49:01.618Z,88.85
2023-01-09T12:51:41.331Z,87.63
2023-01-09T12:54:18.975Z,89.57
2023-01-09T12:56:51.747Z,91.88
2023-01-09T12:59:30.791Z,92.54
2023-01-09T13:02:11.308Z,91.17
2023-01-09T13:05:02.727Z,91.50
2023-01-09T13:07:38.074Z,90.23
2023-01-09T13:10:19.204Z,88.48
2023-01-09T13:12:49.188Z,88.58
2023-01-09T13:15:34.347Z,90.49
2023-01-09T13:18:14.121Z,88.89
2023-01-09T13:20:46.683Z,88.25
2023-01-09T13:23:52.339Z,88.83
2023-01-09T13:26:37.828Z,90.12
2023-01-09T13:29:35.550Z,86.84
2023-01-09T13:32:40.889Z,89.19
2023-01-09T13:35:14.604Z,89.63
2023-01-09T13:37:42.676Z,88.32
2023-01-09T13:40:30.139Z,88.06
2023-01-09T13:43:00.961Z,87.36
2023-01-09T13:45:30.230Z,83.47
2023-01-09T13:48:14.512Z,83.03
2023-01-09T13:50:42.303Z,82.21
2023-01-09T13:53:18.437Z,82.29
2023-01-09T13:55:57.646Z,82.04
2023-01-09T13:58:26.231Z,79.21
2023-01-09T14:00:56.671Z,79.56
2023-01-09T14:03:28.282Z,79.29
2023-01-09T14:05:56.071Z,82.60
2023-01-09T14:08:26.508Z,80.88
2023-01-09T14:10:57.847Z,80.25
2023-01-09T14:13:29.565Z,80.62
2023-01-09T14:16:15.055Z,78.86
2023-01-09T14:19:02.930Z,78.02
2023-01-09T14:21:45.612Z,80.39
2023-01-09T14:24:23.385Z,78.86
2023-01-09T14:26:56.718Z,79.43
2023-01-09T14:29:39.454Z,78.47
2023-01-09T14:32:33.742Z,79.05
2023-01-09T14:35:08.050Z,76.72
2023-01-09T14:37:38.825Z,77.97
2023-01-09T14:40:20.831Z,78.88
2023-01-09T14:42:52.462Z,76.23
2023-01-09T14:45:25.820Z,78.07
2023-01-09T14:48:02.448Z,78.07
2023-01-09T14:50:51.069Z,78.37
2023-01-09T14:53:26.184Z,79.76
2023-01-09T14:56:00.417Z,80.81
2023-01-09T14:58:32.258Z,80.69
2023-01-09T15:01:06.167Z,79.42
2023-01-09T15:03:49.438Z,79.79
2023-01-09T15:06:26.550Z,81.82
2023-01-09T15:08:58.871Z,81.25
2023-01-09T15:11:27.063Z,81.48
2023-01-09T15:13:57.202Z,83.81
2023-01-09T15:16:26.112Z,82.29
2023-01-09T15:19:00.171Z,82.50
2023-01-09T15:21:31.012Z,83.67
2023-01-09T15:24:19.860Z,86.19
2023-01-09T15:26:52.994Z,87.28
2023-01-09T15:29:20.565Z,85.46
2023-01-09T15:31:50.759Z,86.10
2023-01-09T15:34:21.942Z,86.21
2023-01-09T15:36:52.384Z,85.68
2023-01-09T15:39:27.801Z,86.73
2023-01-09T15:42:14.778Z,87.09
2023-01-09T15:44:45.440Z,87.01
2023-01-09T15:47:32.475Z,87.56
2023-01-09T15:50:03.229Z,87.62
2023-01-09T15:52:31.322Z,88.40
2023-01-09T15:54:58.408Z,89.66
2023-01-09T15:57:25.550Z,89.66
2023-01-09T15:59:53.956Z,90.48
2023-01-09T16:02:43.815Z,90.24
2023-01-09T16:05:18.155Z,90.95
2023-01-09T16:07:49.659Z,91.18
2023-01-09T16:10:26.307Z,91.64
2023-01-09T16:12:54.657Z,91.16
2023-01-09T16:15:22.361Z,91.28
2023-01-09T16:18:15.277Z,92.23
2023-01-09T16:20:42.972Z,92.49
2023-01-09T16:23:28.489Z,92.96
2023-01-09T16:26:19.712Z,93.84
2023-01-09T16:28:46.869Z,93.40
2023-01-09T16:31:26.396Z,94.01
2023-01-09T16:34:06.883Z,95.06
2023-01-09T16:36:35.736Z,96.47
2023-01-09T16:39:04.059Z,97.04
2023-01-09T16:41:50.032Z,97.67
2023-01-09T16:44:19.165Z,97.39
2023-01-09T16:46:46.465Z,97.52
2023-01-09T16:49:23.316Z,97.13
2023-01-09T16:51:51.597Z,97.67
2023-01-09T16:54:19.368Z,98.41
2023-01-09T16:56:52.192Z,98.49
2023-01-09T16:59:24.643Z,97.97
2023-01-09T17:01:52.999Z,98.11
2023-01-09T17:04:20.457Z,98.02
2023-01-09T17:06:48.940Z,98.27
2023-01-09T17:09:19.306Z,99.47
2023-01-09T17:11:46.372Z,99.83
2023-01-09T17:14:14.134Z,100.00
2023-01-09T17:16:50.885Z,100.00
2023-01-09T17:19:20.490Z,100.00
2023-01-09T17:21:47.650Z,100.00
2023-01-09T17:24:33.660Z,100.00
2023-01-09T17:27:20.478Z,100.00
2023-01-09T17:29:48.155Z,100.00
2023-01-09T17:32:16.941Z,100.00
2023-01-09T17:34:44.216Z,100.00
2023-01-09T17:37:18.667Z,100.00
2023-01-09T17:39:46.103Z,100.00
2023-01-09T17:42:13.195Z,100.00
2023-01-09T17:44:40.465Z,100.00
2023-01-09T17:47:14.727Z,100.00
2023-01-09T17:49:42.321Z,99.87
2023-01-09T17:52:09.516Z,99.60
2023-01-09T17:54:36.650Z,98.15
2023-01-09T17:57:04.288Z,98.39
2023-01-09T17:59:31.511Z,97.96
2023-01-09T18:01:58.624Z,97.74
2023-01-09T18:04:25.740Z,97.93
2023-01-09T18:06:54.512Z,97.96
2023-01-09T18:09:21.660Z,98.07
2023-01-09T18:11:48.779Z,97.78
2023-01-09T18:14:17.035Z,97.91
2023-01-09T18:16:45.234Z,98.66
2023-01-09T18:19:12.562Z,99.60
2023-01-09T18:21:39.735Z,99.89
2023-01-09T18:24:07.382Z,99.45
2023-01-09T18:26:34.480Z,100.00
2023-01-09T18:29:01.827Z,99.87
2023-01-09T18:31:30.327Z,99.39
2023-01-09T18:34:01.927Z,98.79
2023-01-09T18:36:29.892Z,98.30
2023-01-09T18:38:59.497Z,97.77
2023-01-09T18:41:27.477Z,97.65
2023-01-09T18:44:03.459Z,97.61
2023-01-09T18:46:31.973Z,97.63
2023-01-09T18:49:04.387Z,97.57
2023-01-09T18:51:33.979Z,97.91
2023-01-09T18:54:01.137Z,98.43
2023-01-09T18:56:28.410Z,97.32
2023-01-09T18:58:57.209Z,96.86
2023-01-09T19:01:25.965Z,96.08
2023-01-09T19:03:53.281Z,96.65
2023-01-09T19:06:20.443Z,98.01
2023-01-09T19:08:47.830Z,98.87
2023-01-09T19:11:15.331Z,96.92
2023-01-09T19:13:42.977Z,96.94
2023-01-09T19:16:10.649Z,96.78
2023-01-09T19:18:40.377Z,96.61
2023-01-09T19:21:13.105Z,96.99
2023-01-09T19:23:42.067Z,96.99
2023-01-09T19:26:16.938Z,96.95
2023-01-09T19:28:46.466Z,96.94
2023-01-09T19:31:14.846Z,97.26
2023-01-09T19:33:42.327Z,98.29
2023-01-09T19:36:09.576Z,98.34
2023-01-09T19:38:36.780Z,97.96
2023-01-09T19:41:18.240Z,98.69
2023-01-09T19:43:46.669Z,98.93
2023-01-09T19:46:16.689Z,99.33
2023-01-09T19:48:43.842Z,98.99
2023-01-09T19:51:12.898Z,99.55
2023-01-09T19:53:40.247Z,99.55
2023-01-09T19:56:13.286Z,100.00
2023-01-09T19:58:41.483Z,100.00
2023-01-09T20:01:14.572Z,100.00
2023-01-09T20:03:43.612Z,100.00
2023-01-09T20:06:14.336Z,100.00
2023-01-09T20:08:41.962Z,100.00
2023-01-09T20:11:09.269Z,100.00
2023-01-09T20:13:37.116Z,100.00
2023-01-09T20:16:05.063Z,100.00
2023-01-09T20:18:38.235Z,100.00
2023-01-09T20:21:05.635Z,100.00
2023-01-09T20:23:33.470Z,100.00
2023-01-09T20:26:01.851Z,100.00
2023-01-09T20:28:29.010Z,100.00
2023-01-09T20:30:56.268Z,100.00
2023-01-09T20:33:23.436Z,100.00
2023-01-09T20:35:50.556Z,100.00
2023-01-09T20:38:17.717Z,100.00
2023-01-09T20:40:44.837Z,100.00
2023-01-09T20:43:12.854Z,100.00
2023-01-09T20:45:40.675Z,100.00
2023-01-09T20:48:08.332Z,100.00
2023-01-09T20:50:35.438Z,100.00
2023-01-09T20:53:03.795Z,100.00
2023-01-09T20:55:31.054Z,100.00
2023-01-09T20:57:58.177Z,100.00
2023-01-09T21:00:31.394Z,100.00
2023-01-09T21:02:59.342Z,100.00
2023-01-09T21:05:26.919Z,100.00
2023-01-09T21:07:54.041Z,100.00
2023-01-09T21:10:21.216Z,100.00
2023-01-09T21:12:48.410Z,100.00
2023-01-09T21:15:17.753Z,100.00
2023-01-09T21:17:44.975Z,100.00
2023-01-09T21:20:14.725Z,100.00
2023-01-09T21:22:42.143Z,100.00
2023-01-09T21:25:09.489Z,100.00
2023-01-09T21:27:42.769Z,100.00
2023-01-09T21:30:10.718Z,100.00
2023-01-09T21:32:38.125Z,100.00
2023-01-09T21:35:06.778Z,100.00
2023-01-09T21:37:36.097Z,100.00
2023-01-09T21:40:06.273Z,100.00
2023-01-09T21:42:51.802Z,100.00
2023-01-09T21:45:37.272Z,100.00
2023-01-09T21:48:05.836Z,100.00
2023-01-09T21:50:34.056Z,100.00
2023-01-09T21:53:01.560Z,100.00
2023-01-09T21:55:28.767Z,100.00
2023-01-09T21:57:56.376Z,100.00
2023-01-09T22:00:24.716Z,100.00
2023-01-09T22:02:51.840Z,100.00
2023-01-09T22:05:18.920Z,100.00
2023-01-09T22:07:46.102Z,100.00
2023-01-09T22:10:13.245Z,100.00
2023-01-09T22:13:00.304Z,100.00
2023-01-09T22:15:27.447Z,100.00
2023-01-09T22:17:54.527Z,100.00
2023-01-09T22:20:21.609Z,100.00
2023-01-09T22:22:49.385Z,100.00
2023-01-09T22:25:16.551Z,100.00
2023-01-09T22:27:44.003Z,100.00
2023-01-09T22:30:11.842Z,100.00
2023-01-09T22:32:39.025Z,100.00
2023-01-09T22:35:06.768Z,100.00
2023-01-09T22:37:34.048Z,100.00
2023-01-09T22:40:01.190Z,100.00
2023-01-09T22:42:28.274Z,100.00
2023-01-09T22:44:55.372Z,100.00
2023-01-09T22:47:22.455Z,100.00
2023-01-09T22:49:53.517Z,100.00
2023-01-09T22:52:21.659Z,100.00
2023-01-09T22:54:48.765Z,100.00
2023-01-09T22:57:15.875Z,100.00
2023-01-09T22:59:43.001Z,100.00
2023-01-09T23:02:10.222Z,100.00
2023-01-09T23:04:37.428Z,100.00
2023-01-09T23:07:04.527Z,100.00
2023-01-09T23:09:31.628Z,100.00
2023-01-09T23:12:05.175Z,100.00
2023-01-09T23:14:38.917Z,100.00
2023-01-09T23:17:07.283Z,100.00
2023-01-09T23:19:34.409Z,100.00
2023-01-09T23:22:02.727Z,100.00
2023-01-09T23:24:30.405Z,100.00
2023-01-09T23:26:57.648Z,100.00
2023-01-09T23:29:26.109Z,100.00
2023-01-09T23:31:53.822Z,100.00
2023-01-09T23:34:24.105Z,100.00
2023-01-09T23:36:52.327Z,100.00
2023-01-09T23:39:19.732Z,100.00
2023-01-09T23:42:05.088Z,100.00
2023-01-09T23:44:33.025Z,100.00
2023-01-09T23:47:00.154Z,100.00
2023-01-09T23:49:27.322Z,100.00
2023-01-09T23:51:54.581Z,100.00
2023-01-09T23:54:21.769Z,100.00
2023-01-09T23:56:48.887Z,100.00
2023-01-09T23:59:17.579Z,100.00
